Time;durP1;ratioP1;P1;durP2;ratioP2;P2;SDS_P1;SDS_P2;PMS_P1;PMS_P2;Temp;Humidity;BMP_temperature;BMP_pressure;BME280_temperature;BME280_humidity;BME280_pressure;Samples;Min_cycle;Max_cycle;Signal;HPM_P1;HPM_P2
2021/06/18 00:00:16;;;;;;;3.80;1.00;;;;;;;;;;1908163;67;20119;-62
2021/06/18 00:02:43;;;;;;;4.30;0.70;;;;;;;;;;1908649;67;20372;-62
2021/06/18 00:05:11;;;;;;;3.20;0.70;;;;;;;;;;1909013;67;20090;-62
2021/06/18 00:07:37;;;;;;;4.40;0.70;;;;;;;;;;1909069;67;20076;-62
2021/06/18 00:10:05;;;;;;;6.78;1.20;;;;;;;;;;1909333;67;20118;-61
2021/06/18 00:12:31;;;;;;;3.17;0.68;;;;;;;;;;1909239;67;20098;-62
2021/06/18 00:15:00;;;;;;;2.67;1.02;;;;;;;;;;1907525;67;20135;-60
2021/06/18 00:17:29;;;;;;;5.82;1.10;;;;;;;;;;1908336;67;20102;-62
2021/06/18 00:19:54;;;;;;;4.43;1.10;;;;;;;;;;1909865;67;20083;-63
2021/06/18 00:22:20;;;;;;;4.15;0.73;;;;;;;;;;1908195;67;20156;-61
2021/06/18 00:24:45;;;;;;;0.85;0.50;;;;;;;;;;1907942;67;20541;-60
2021/06/18 00:27:11;;;;;;;4.13;0.73;;;;;;;;;;1908275;67;20461;-61
2021/06/18 00:29:36;;;;;;;4.68;0.82;;;;;;;;;;1908593;67;20088;-62
2021/06/18 00:32:03;;;;;;;4.97;1.00;;;;;;;;;;1908182;75;20075;-61
2021/06/18 00:34:29;;;;;;;2.97;0.70;;;;;;;;;;1908416;67;20335;-62
2021/06/18 00:36:54;;;;;;;10.30;0.93;;;;;;;;;;1908785;67;20345;-62
2021/06/18 00:39:20;;;;;;;4.07;0.80;;;;;;;;;;1908243;67;20514;-62
2021/06/18 00:41:46;;;;;;;5.00;0.80;;;;;;;;;;1909231;67;20076;-62
2021/06/18 00:44:12;;;;;;;5.57;1.25;;;;;;;;;;1908569;67;20438;-62
2021/06/18 00:46:37;;;;;;;6.63;1.42;;;;;;;;;;1908159;67;20088;-63
2021/06/18 00:49:03;;;;;;;5.15;1.33;;;;;;;;;;1908929;67;20426;-65
2021/06/18 00:51:29;;;;;;;4.45;1.00;;;;;;;;;;1905364;67;20099;-62
2021/06/18 00:53:56;;;;;;;5.40;0.90;;;;;;;;;;1909232;75;20156;-61
2021/06/18 00:56:22;;;;;;;7.38;0.98;;;;;;;;;;1908846;67;20304;-62
2021/06/18 00:58:47;;;;;;;2.88;0.70;;;;;;;;;;1908465;67;20090;-62
2021/06/18 01:01:13;;;;;;;2.88;0.70;;;;;;;;;;1908825;56;20084;-62
2021/06/18 01:03:39;;;;;;;4.85;0.73;;;;;;;;;;1909548;67;20092;-61
2021/06/18 01:06:04;;;;;;;6.28;1.50;;;;;;;;;;1908983;67;20091;-61
2021/06/18 01:08:41;;;;;;;2.33;0.90;;;;;;;;;;1908386;67;20169;-62
2021/06/18 01:11:31;;;;;;;3.38;1.45;;;;;;;;;;1908317;67;20100;-63
2021/06/18 01:14:03;;;;;;;7.55;0.90;;;;;;;;;;1908193;67;20100;-62
2021/06/18 01:16:31;;;;;;;12.57;1.05;;;;;;;;;;1908195;75;20507;-61
2021/06/18 01:19:04;;;;;;;2.75;0.70;;;;;;;;;;1908425;67;20481;-61
2021/06/18 01:21:43;;;;;;;3.03;0.93;;;;;;;;;;1908587;67;20098;-62
2021/06/18 01:24:22;;;;;;;8.50;0.95;;;;;;;;;;1908987;67;20254;-62
2021/06/18 01:27:10;;;;;;;4.82;0.93;;;;;;;;;;1907671;67;20384;-62
2021/06/18 01:29:39;;;;;;;6.65;0.93;;;;;;;;;;1908572;67;20586;-62
2021/06/18 01:32:09;;;;;;;7.70;1.08;;;;;;;;;;1908847;67;20079;-61
2021/06/18 01:34:37;;;;;;;5.70;1.10;;;;;;;;;;1908687;67;20145;-61
2021/06/18 01:37:11;;;;;;;4.57;1.30;;;;;;;;;;1908188;67;20076;-62
2021/06/18 01:39:39;;;;;;;5.05;1.05;;;;;;;;;;1908141;67;20414;-60
2021/06/18 01:42:06;;;;;;;3.28;0.90;;;;;;;;;;1908100;67;20399;-62
2021/06/18 01:44:33;;;;;;;2.00;0.88;;;;;;;;;;1908906;67;20531;-62
2021/06/18 01:47:00;;;;;;;4.00;0.90;;;;;;;;;;1909053;67;20380;-61
2021/06/18 01:49:28;;;;;;;4.57;0.90;;;;;;;;;;1909706;67;20570;-61
2021/06/18 01:51:56;;;;;;;9.30;1.50;;;;;;;;;;1909907;67;20080;-62
2021/06/18 01:54:27;;;;;;;5.35;1.23;;;;;;;;;;1909342;67;20097;-60
2021/06/18 01:56:55;;;;;;;5.82;0.93;;;;;;;;;;1908597;67;20085;-61
2021/06/18 01:59:24;;;;;;;7.70;0.90;;;;;;;;;;1909023;67;20378;-61
2021/06/18 02:01:50;;;;;;;4.20;1.10;;;;;;;;;;1908278;67;20698;-62
2021/06/18 02:04:17;;;;;;;6.93;1.40;;;;;;;;;;1909725;67;20106;-62
2021/06/18 02:06:45;;;;;;;7.03;1.70;;;;;;;;;;1909635;67;20086;-62
2021/06/18 02:09:14;;;;;;;5.70;1.38;;;;;;;;;;1909049;67;20863;-62
2021/06/18 02:11:40;;;;;;;7.72;1.40;;;;;;;;;;1908614;67;20299;-61
2021/06/18 02:14:19;;;;;;;6.03;1.45;;;;;;;;;;1910489;67;20245;-61
2021/06/18 02:16:49;;;;;;;7.75;1.80;;;;;;;;;;1909373;75;20141;-61
2021/06/18 02:19:16;;;;;;;5.95;1.55;;;;;;;;;;1909207;67;20106;-60
2021/06/18 02:21:45;;;;;;;5.03;1.38;;;;;;;;;;1910455;67;20080;-61
2021/06/18 02:24:11;;;;;;;3.80;1.67;;;;;;;;;;1908643;67;20087;-61
2021/06/18 02:26:38;;;;;;;5.85;1.60;;;;;;;;;;1910103;67;20084;-61
2021/06/18 02:29:06;;;;;;;5.95;1.50;;;;;;;;;;1909767;67;20152;-62
2021/06/18 02:31:34;;;;;;;5.18;1.33;;;;;;;;;;1909863;67;20096;-61
2021/06/18 02:34:00;;;;;;;3.67;1.48;;;;;;;;;;1909906;67;20095;-60
2021/06/18 02:36:26;;;;;;;10.25;1.83;;;;;;;;;;1908204;67;20095;-61
2021/06/18 02:38:51;;;;;;;6.32;2.42;;;;;;;;;;1909040;67;20094;-60
2021/06/18 02:41:18;;;;;;;6.05;1.70;;;;;;;;;;1910462;67;20111;-61
2021/06/18 02:43:44;;;;;;;9.88;1.88;;;;;;;;;;1909657;67;20088;-61
2021/06/18 02:46:20;;;;;;;5.22;1.27;;;;;;;;;;1909373;67;20129;-61
2021/06/18 02:48:52;;;;;;;8.38;1.42;;;;;;;;;;1908310;67;20132;-62
2021/06/18 02:51:31;;;;;;;9.38;1.40;;;;;;;;;;1909413;67;20090;-61
2021/06/18 02:54:02;;;;;;;6.28;1.38;;;;;;;;;;1908607;67;20099;-62
2021/06/18 02:56:33;;;;;;;9.87;1.80;;;;;;;;;;1909110;67;20079;-61
2021/06/18 02:59:07;;;;;;;7.32;2.67;;;;;;;;;;1908960;67;20099;-60
2021/06/18 03:01:38;;;;;;;4.97;1.33;;;;;;;;;;1908885;67;20075;-60
2021/06/18 03:04:04;;;;;;;4.47;1.50;;;;;;;;;;1908258;67;20402;-61
2021/06/18 03:06:36;;;;;;;3.80;1.70;;;;;;;;;;1909678;67;20084;-61
2021/06/18 03:09:05;;;;;;;8.55;1.65;;;;;;;;;;1908232;67;20098;-59
2021/06/18 03:11:35;;;;;;;6.88;1.65;;;;;;;;;;1909317;67;20079;-62
2021/06/18 03:14:04;;;;;;;7.70;1.55;;;;;;;;;;1910362;67;20090;-61
2021/06/18 03:16:31;;;;;;;5.20;1.52;;;;;;;;;;1908890;67;20076;-61
2021/06/18 03:19:02;;;;;;;8.95;1.90;;;;;;;;;;1908975;67;20083;-61
2021/06/18 03:21:31;;;;;;;7.65;1.67;;;;;;;;;;1908682;67;20094;-61
2021/06/18 03:24:00;;;;;;;7.57;2.13;;;;;;;;;;1909119;67;20138;-60
2021/06/18 03:26:26;;;;;;;7.65;1.65;;;;;;;;;;1908233;67;20087;-61
2021/06/18 03:28:53;;;;;;;7.85;1.70;;;;;;;;;;1908980;67;20087;-60
2021/06/18 03:31:19;;;;;;;6.82;1.83;;;;;;;;;;1907490;67;20091;-61
2021/06/18 03:33:47;;;;;;;11.75;1.65;;;;;;;;;;1909595;67;20092;-56
2021/06/18 03:36:15;;;;;;;10.65;1.75;;;;;;;;;;1909259;67;20079;-58
2021/06/18 03:38:42;;;;;;;4.03;1.50;;;;;;;;;;1909272;67;20145;-57
2021/06/18 03:41:08;;;;;;;7.78;1.70;;;;;;;;;;1908612;67;20106;-58
2021/06/18 03:43:34;;;;;;;5.90;1.38;;;;;;;;;;1908756;67;20079;-57
2021/06/18 03:46:03;;;;;;;5.72;1.90;;;;;;;;;;1909222;67;20152;-57
2021/06/18 03:48:29;;;;;;;6.20;1.75;;;;;;;;;;1909002;67;20403;-56
2021/06/18 03:50:54;;;;;;;6.28;1.60;;;;;;;;;;1909290;67;20088;-58
2021/06/18 03:53:20;;;;;;;5.80;2.00;;;;;;;;;;1908344;67;20148;-56
2021/06/18 03:55:47;;;;;;;7.80;1.90;;;;;;;;;;1909270;67;20083;-56
2021/06/18 03:58:16;;;;;;;6.57;1.52;;;;;;;;;;1908752;67;20096;-56
2021/06/18 04:00:43;;;;;;;7.78;1.55;;;;;;;;;;1908995;67;20096;-56
2021/06/18 04:03:10;;;;;;;10.85;1.73;;;;;;;;;;1908299;67;20090;-57
2021/06/18 04:05:39;;;;;;;3.22;1.50;;;;;;;;;;1910055;67;20422;-57
2021/06/18 04:08:06;;;;;;;5.47;1.38;;;;;;;;;;1907564;67;20365;-56
2021/06/18 04:10:32;;;;;;;8.40;1.58;;;;;;;;;;1910437;67;20147;-56
2021/06/18 04:12:58;;;;;;;10.35;1.60;;;;;;;;;;1908256;67;20114;-55
2021/06/18 04:15:24;;;;;;;4.43;1.25;;;;;;;;;;1908554;75;20088;-56
2021/06/18 04:17:51;;;;;;;8.57;1.80;;;;;;;;;;1908881;67;20087;-58
2021/06/18 04:20:20;;;;;;;8.95;1.98;;;;;;;;;;1908596;67;20094;-56
2021/06/18 04:22:46;;;;;;;4.47;1.95;;;;;;;;;;1909241;67;20148;-57
2021/06/18 04:25:12;;;;;;;10.25;1.75;;;;;;;;;;1909596;67;20084;-55
2021/06/18 04:27:38;;;;;;;5.53;1.30;;;;;;;;;;1908617;67;20499;-56
2021/06/18 04:30:07;;;;;;;13.15;1.80;;;;;;;;;;1908945;67;20095;-57
2021/06/18 04:32:32;;;;;;;6.00;2.10;;;;;;;;;;1908533;67;20095;-56
2021/06/18 04:34:58;;;;;;;5.20;1.70;;;;;;;;;;1908710;67;20088;-56
2021/06/18 04:37:23;;;;;;;6.47;2.00;;;;;;;;;;1908852;67;20075;-57
2021/06/18 04:39:49;;;;;;;8.15;2.15;;;;;;;;;;1909335;67;20810;-56
2021/06/18 04:42:14;;;;;;;7.53;1.60;;;;;;;;;;1908312;67;20091;-56
2021/06/18 04:44:40;;;;;;;6.90;1.75;;;;;;;;;;1909209;75;20523;-58
2021/06/18 04:47:05;;;;;;;6.13;1.80;;;;;;;;;;1907244;67;20087;-56
2021/06/18 04:49:31;;;;;;;5.88;1.40;;;;;;;;;;1908441;67;20086;-57
2021/06/18 04:51:57;;;;;;;7.13;1.50;;;;;;;;;;1908428;67;20175;-56
2021/06/18 04:54:23;;;;;;;4.13;1.40;;;;;;;;;;1908709;67;20091;-56
2021/06/18 04:56:49;;;;;;;2.25;1.20;;;;;;;;;;1908300;67;20080;-58
2021/06/18 04:59:15;;;;;;;8.43;1.45;;;;;;;;;;1907965;67;20080;-57
2021/06/18 05:01:40;;;;;;;6.07;1.65;;;;;;;;;;1908439;67;20103;-57
2021/06/18 05:04:06;;;;;;;10.50;1.35;;;;;;;;;;1909994;67;20104;-57
2021/06/18 05:06:32;;;;;;;5.65;1.50;;;;;;;;;;1909285;67;20086;-59
2021/06/18 05:08:57;;;;;;;8.25;1.83;;;;;;;;;;1908258;67;20084;-57
2021/06/18 05:11:23;;;;;;;10.68;1.88;;;;;;;;;;1909206;67;20128;-57
2021/06/18 05:13:52;;;;;;;12.23;2.53;;;;;;;;;;1908261;67;20095;-57
2021/06/18 05:16:17;;;;;;;8.23;2.13;;;;;;;;;;1909325;67;20094;-57
2021/06/18 05:18:43;;;;;;;5.32;1.35;;;;;;;;;;1909156;67;20512;-57
2021/06/18 05:21:09;;;;;;;7.53;1.55;;;;;;;;;;1909843;67;20086;-57
2021/06/18 05:23:34;;;;;;;8.02;1.90;;;;;;;;;;1909131;67;20084;-57
2021/06/18 05:26:00;;;;;;;5.85;2.13;;;;;;;;;;1908775;67;20088;-60
2021/06/18 05:28:25;;;;;;;6.32;1.58;;;;;;;;;;1909297;67;20099;-57
2021/06/18 05:30:51;;;;;;;10.18;1.73;;;;;;;;;;1907757;67;20091;-57
2021/06/18 05:33:16;;;;;;;8.65;1.58;;;;;;;;;;1907599;67;22424;-61
2021/06/18 05:35:44;;;;;;;3.88;1.30;;;;;;;;;;1909537;67;20459;-60
2021/06/18 05:38:10;;;;;;;5.75;1.50;;;;;;;;;;1909301;67;20080;-62
2021/06/18 05:40:35;;;;;;;4.55;1.80;;;;;;;;;;1909884;67;20088;-60
2021/06/18 05:43:03;;;;;;;6.47;1.70;;;;;;;;;;1909007;67;20100;-60
2021/06/18 05:45:32;;;;;;;6.32;1.70;;;;;;;;;;1908682;67;20087;-62
2021/06/18 05:47:58;;;;;;;7.32;1.92;;;;;;;;;;1908482;67;20091;-62
2021/06/18 05:50:23;;;;;;;7.68;1.65;;;;;;;;;;1908481;67;20091;-62
2021/06/18 05:52:49;;;;;;;9.10;1.80;;;;;;;;;;1909272;67;20075;-61
2021/06/18 05:55:14;;;;;;;6.78;1.60;;;;;;;;;;1908411;67;20087;-61
2021/06/18 05:57:41;;;;;;;5.05;1.67;;;;;;;;;;1909244;67;20529;-63
2021/06/18 06:00:07;;;;;;;5.05;1.67;;;;;;;;;;1908261;67;20156;-62
2021/06/18 06:02:33;;;;;;;9.38;1.55;;;;;;;;;;1907700;75;20084;-61
2021/06/18 06:04:58;;;;;;;3.67;1.58;;;;;;;;;;1907949;75;20094;-62
2021/06/18 06:07:24;;;;;;;7.10;1.42;;;;;;;;;;1909256;75;20376;-62
2021/06/18 06:09:49;;;;;;;7.57;1.73;;;;;;;;;;1909113;67;20083;-61
2021/06/18 06:12:15;;;;;;;11.57;2.30;;;;;;;;;;1908531;75;20091;-62
2021/06/18 06:14:41;;;;;;;13.05;2.35;;;;;;;;;;1908239;67;20213;-61
2021/06/18 06:17:06;;;;;;;5.32;1.65;;;;;;;;;;1910925;67;21489;-61
2021/06/18 06:19:32;;;;;;;5.15;1.55;;;;;;;;;;1908835;67;20088;-62
2021/06/18 06:21:57;;;;;;;5.45;1.70;;;;;;;;;;1908397;67;20395;-61
2021/06/18 06:24:23;;;;;;;7.70;1.98;;;;;;;;;;1908500;67;20083;-62
2021/06/18 06:26:48;;;;;;;6.72;1.45;;;;;;;;;;1908295;67;20565;-60
2021/06/18 06:29:14;;;;;;;2.88;1.70;;;;;;;;;;1908461;67;20099;-63
2021/06/18 06:31:43;;;;;;;6.72;1.48;;;;;;;;;;1908620;67;20087;-61
2021/06/18 06:34:09;;;;;;;11.93;2.28;;;;;;;;;;1907914;67;20483;-57
2021/06/18 06:36:34;;;;;;;12.35;1.67;;;;;;;;;;1909157;67;20115;-58
2021/06/18 06:39:02;;;;;;;8.75;1.65;;;;;;;;;;1908523;67;20079;-58
2021/06/18 06:41:27;;;;;;;9.75;1.80;;;;;;;;;;1907907;67;20646;-57
2021/06/18 06:43:53;;;;;;;6.88;1.73;;;;;;;;;;1908416;67;20131;-57
2021/06/18 06:46:20;;;;;;;3.25;1.38;;;;;;;;;;1908155;67;20151;-57
2021/06/18 06:48:50;;;;;;;9.35;1.70;;;;;;;;;;1907098;67;20109;-57
2021/06/18 06:51:16;;;;;;;4.75;1.88;;;;;;;;;;1907647;67;20091;-57
2021/06/18 06:53:43;;;;;;;4.47;1.25;;;;;;;;;;1908632;67;20083;-58
2021/06/18 06:56:09;;;;;;;7.47;1.63;;;;;;;;;;1909224;67;20091;-66
2021/06/18 06:58:34;;;;;;;6.70;1.25;;;;;;;;;;1907254;67;20094;-57
2021/06/18 07:01:00;;;;;;;8.40;1.30;;;;;;;;;;1908038;67;20135;-57
2021/06/18 07:03:26;;;;;;;5.57;1.20;;;;;;;;;;1909682;67;20513;-57
2021/06/18 07:05:51;;;;;;;8.40;1.27;;;;;;;;;;1909132;67;20088;-57
2021/06/18 07:08:19;;;;;;;7.05;1.17;;;;;;;;;;1908501;67;20532;-57
2021/06/18 07:10:45;;;;;;;5.85;1.67;;;;;;;;;;1907416;67;20275;-57
2021/06/18 07:13:11;;;;;;;9.18;2.13;;;;;;;;;;1906679;67;20569;-57
2021/06/18 07:15:36;;;;;;;6.80;1.65;;;;;;;;;;1906733;67;20084;-57
2021/06/18 07:18:02;;;;;;;8.77;1.48;;;;;;;;;;1907432;67;20093;-56
2021/06/18 07:20:28;;;;;;;5.95;1.30;;;;;;;;;;1907829;67;20094;-57
2021/06/18 07:22:53;;;;;;;6.68;1.35;;;;;;;;;;1908284;67;20084;-57
2021/06/18 07:25:19;;;;;;;5.07;1.58;;;;;;;;;;1908164;67;20729;-57
2021/06/18 07:27:44;;;;;;;6.82;1.52;;;;;;;;;;1908407;67;20411;-59
2021/06/18 07:30:10;;;;;;;10.18;1.10;;;;;;;;;;1907640;67;20096;-58
2021/06/18 07:32:36;;;;;;;6.53;1.13;;;;;;;;;;1908815;67;20095;-64
2021/06/18 07:35:02;;;;;;;5.68;1.30;;;;;;;;;;1909721;67;20084;-62
2021/06/18 07:37:28;;;;;;;5.32;1.10;;;;;;;;;;1908464;67;20086;-62
2021/06/18 07:39:53;;;;;;;4.32;0.77;;;;;;;;;;1908672;67;20434;-62
2021/06/18 07:42:19;;;;;;;3.38;1.13;;;;;;;;;;1908608;67;20200;-63
2021/06/18 07:44:45;;;;;;;10.35;1.20;;;;;;;;;;1908598;67;20151;-63
2021/06/18 07:47:10;;;;;;;5.25;1.05;;;;;;;;;;1908830;75;20094;-61
2021/06/18 07:49:36;;;;;;;1.98;0.70;;;;;;;;;;1909346;75;20529;-61
2021/06/18 07:52:03;;;;;;;7.07;0.95;;;;;;;;;;1908195;67;20135;-62
2021/06/18 07:54:28;;;;;;;6.95;1.00;;;;;;;;;;1908650;75;20080;-63
2021/06/18 07:56:54;;;;;;;6.75;1.17;;;;;;;;;;1908856;75;20087;-62
2021/06/18 07:59:20;;;;;;;5.28;0.82;;;;;;;;;;1907443;67;20094;-62
2021/06/18 08:01:46;;;;;;;2.75;0.63;;;;;;;;;;1908516;67;20080;-63
2021/06/18 08:04:12;;;;;;;3.88;0.63;;;;;;;;;;1909962;67;20095;-57
2021/06/18 08:06:37;;;;;;;5.63;1.00;;;;;;;;;;1908199;75;20080;-57
2021/06/18 08:09:05;;;;;;;4.05;0.85;;;;;;;;;;1909407;67;20106;-57
2021/06/18 08:11:30;;;;;;;7.22;0.90;;;;;;;;;;1909594;67;20090;-57
2021/06/18 08:13:56;;;;;;;4.07;0.60;;;;;;;;;;1909148;67;20136;-57
2021/06/18 08:16:21;;;;;;;4.70;0.70;;;;;;;;;;1908634;67;20095;-57
2021/06/18 08:18:47;;;;;;;3.25;1.08;;;;;;;;;;1907734;75;20100;-57
2021/06/18 08:21:12;;;;;;;8.00;0.93;;;;;;;;;;1908358;67;20084;-57
2021/06/18 08:23:38;;;;;;;5.90;1.05;;;;;;;;;;1910038;67;20106;-58
2021/06/18 08:26:04;;;;;;;3.47;0.50;;;;;;;;;;1908367;75;20497;-57
2021/06/18 08:28:30;;;;;;;5.88;0.85;;;;;;;;;;1908920;67;20087;-58
2021/06/18 08:30:55;;;;;;;4.50;0.98;;;;;;;;;;1908813;67;20558;-57
2021/06/18 08:33:21;;;;;;;6.32;0.75;;;;;;;;;;1909198;67;20075;-63
2021/06/18 08:35:46;;;;;;;8.10;0.60;;;;;;;;;;1909352;75;20572;-63
2021/06/18 08:38:12;;;;;;;1.70;0.50;;;;;;;;;;1908446;67;20090;-62
2021/06/18 08:40:38;;;;;;;7.03;1.70;;;;;;;;;;1907963;75;20079;-63
2021/06/18 08:43:05;;;;;;;8.45;0.70;;;;;;;;;;1909366;67;20080;-63
2021/06/18 08:45:31;;;;;;;11.75;0.80;;;;;;;;;;1907624;75;20099;-62
2021/06/18 08:47:56;;;;;;;2.83;0.80;;;;;;;;;;1908332;67;20630;-63
2021/06/18 08:50:23;;;;;;;5.53;1.00;;;;;;;;;;1908676;75;20084;-62
2021/06/18 08:52:54;;;;;;;2.50;0.60;;;;;;;;;;1908762;67;20403;-62
2021/06/18 08:55:22;;;;;;;3.10;0.63;;;;;;;;;;1908875;75;20092;-63
2021/06/18 08:57:52;;;;;;;2.40;0.52;;;;;;;;;;1909257;67;20437;-62
2021/06/18 09:00:20;;;;;;;6.05;0.98;;;;;;;;;;1909484;75;20088;-64
2021/06/18 09:02:46;;;;;;;3.05;0.55;;;;;;;;;;1908007;67;20084;-65
2021/06/18 09:05:13;;;;;;;5.00;0.77;;;;;;;;;;1910224;67;20088;-63
2021/06/18 09:07:57;;;;;;;5.72;0.60;;;;;;;;;;1910542;75;20084;-63
2021/06/18 09:10:42;;;;;;;4.35;0.50;;;;;;;;;;1910927;67;21218;-63
2021/06/18 09:13:18;;;;;;;3.58;0.55;;;;;;;;;;1909168;67;20084;-63
2021/06/18 09:15:53;;;;;;;3.47;0.73;;;;;;;;;;1908662;75;20080;-64
2021/06/18 09:18:26;;;;;;;1.35;0.60;;;;;;;;;;1908941;67;20088;-62
2021/06/18 09:20:55;;;;;;;5.30;1.17;;;;;;;;;;1908154;75;20076;-62
2021/06/18 09:23:28;;;;;;;10.95;2.13;;;;;;;;;;1907984;67;20138;-61
2021/06/18 09:26:17;;;;;;;3.92;0.90;;;;;;;;;;1909144;67;20084;-62
2021/06/18 09:29:18;;;;;;;9.23;2.85;;;;;;;;;;1908683;67;20144;-63
2021/06/18 09:31:59;;;;;;;1.35;0.47;;;;;;;;;;1905968;75;20087;-63
2021/06/18 09:34:45;;;;;;;3.47;0.70;;;;;;;;;;1908567;67;20289;-60
2021/06/18 09:37:18;;;;;;;2.70;0.70;;;;;;;;;;1908586;67;20088;-63
2021/06/18 09:40:18;;;;;;;4.50;0.80;;;;;;;;;;1909254;67;20087;-65
2021/06/18 09:42:47;;;;;;;1.63;0.52;;;;;;;;;;1906935;67;20083;-62
2021/06/18 09:45:15;;;;;;;1.98;0.70;;;;;;;;;;1909413;75;20149;-62
2021/06/18 09:47:42;;;;;;;1.95;0.50;;;;;;;;;;1908439;75;20088;-61
2021/06/18 09:50:13;;;;;;;5.20;0.57;;;;;;;;;;1908255;67;20402;-62
2021/06/18 09:52:40;;;;;;;4.78;0.93;;;;;;;;;;1909661;75;20094;-62
2021/06/18 09:55:07;;;;;;;2.45;1.17;;;;;;;;;;1909186;67;20091;-63
2021/06/18 09:57:40;;;;;;;8.90;0.85;;;;;;;;;;1909342;67;20087;-62
2021/06/18 10:00:09;;;;;;;3.85;0.82;;;;;;;;;;1908016;75;20099;-61
2021/06/18 10:02:55;;;;;;;5.20;0.70;;;;;;;;;;1909707;67;20080;-63
2021/06/18 10:05:23;;;;;;;2.67;0.70;;;;;;;;;;1907569;67;20145;-62
2021/06/18 10:07:50;;;;;;;3.78;0.82;;;;;;;;;;1909750;67;20567;-62
2021/06/18 10:10:18;;;;;;;4.28;0.60;;;;;;;;;;1908998;75;20107;-62
2021/06/18 10:12:45;;;;;;;5.80;0.75;;;;;;;;;;1909139;75;20079;-61
2021/06/18 10:15:15;;;;;;;3.22;0.50;;;;;;;;;;1909426;75;20087;-63
2021/06/18 10:17:44;;;;;;;3.72;0.75;;;;;;;;;;1908515;75;20099;-62
2021/06/18 10:20:16;;;;;;;8.45;0.90;;;;;;;;;;1908467;75;20080;-62
2021/06/18 10:22:59;;;;;;;4.68;0.80;;;;;;;;;;1909498;67;20499;-62
2021/06/18 10:25:39;;;;;;;1.92;0.60;;;;;;;;;;1909099;67;20090;-63
2021/06/18 10:28:06;;;;;;;7.00;1.05;;;;;;;;;;1909284;67;20080;-63
2021/06/18 10:30:52;;;;;;;3.30;0.80;;;;;;;;;;1909499;67;20088;-64
2021/06/18 10:33:27;;;;;;;6.15;0.95;;;;;;;;;;1908306;67;20090;-63
2021/06/18 10:36:23;;;;;;;4.32;0.77;;;;;;;;;;1908373;75;20945;-62
2021/06/18 10:39:05;;;;;;;2.78;0.90;;;;;;;;;;1908566;75;20174;-62
2021/06/18 10:41:31;;;;;;;;;;;;;;;;;;1909611;75;20079;-61
2021/06/18 10:43:58;;;;;;;3.67;1.13;;;;;;;;;;1909437;67;19955;-62
2021/06/18 10:46:30;;;;;;;2.55;0.90;;;;;;;;;;1908196;75;20098;-62
2021/06/18 10:49:02;;;;;;;5.18;1.00;;;;;;;;;;1908267;67;20160;-63
2021/06/18 10:51:27;;;;;;;6.93;0.90;;;;;;;;;;1909605;75;20088;-63
2021/06/18 10:54:06;;;;;;;4.88;1.15;;;;;;;;;;1909170;75;20095;-62
2021/06/18 10:56:46;;;;;;;4.30;0.70;;;;;;;;;;1908120;67;20099;-62
2021/06/18 10:59:17;;;;;;;8.20;1.08;;;;;;;;;;1907987;67;20151;-62
2021/06/18 11:01:46;;;;;;;5.38;1.00;;;;;;;;;;1908253;67;20088;-62
2021/06/18 11:04:13;;;;;;;2.03;1.00;;;;;;;;;;1909156;67;20079;-61
2021/06/18 11:06:50;;;;;;;8.00;1.25;;;;;;;;;;1907926;67;20144;-62
2021/06/18 11:09:40;;;;;;;3.05;1.17;;;;;;;;;;1908657;67;20099;-61
2021/06/18 11:12:24;;;;;;;7.53;1.45;;;;;;;;;;1908177;67;20088;-62
2021/06/18 11:14:57;;;;;;;4.70;1.35;;;;;;;;;;1908763;67;20092;-62
2021/06/18 11:17:43;;;;;;;3.55;1.10;;;;;;;;;;1908995;67;20079;-61
2021/06/18 11:20:15;;;;;;;4.45;1.05;;;;;;;;;;1908228;67;20084;-61
2021/06/18 11:22:47;;;;;;;5.07;1.10;;;;;;;;;;1908925;67;20546;-61
2021/06/18 11:25:32;;;;;;;4.75;1.60;;;;;;;;;;1908598;67;20505;-61
2021/06/18 11:28:19;;;;;;;4.85;1.10;;;;;;;;;;1908491;67;20110;-60
2021/06/18 11:30:53;;;;;;;7.57;1.75;;;;;;;;;;1908428;67;20094;-61
2021/06/18 11:33:47;;;;;;;6.93;1.17;;;;;;;;;;1908028;67;20102;-60
2021/06/18 11:36:22;;;;;;;4.35;1.50;;;;;;;;;;1908651;75;20402;-61
2021/06/18 11:38:58;;;;;;;6.03;1.20;;;;;;;;;;1908859;67;20091;-61
2021/06/18 11:41:25;;;;;;;3.60;1.45;;;;;;;;;;1907987;75;20308;-62
2021/06/18 11:43:53;;;;;;;8.35;1.20;;;;;;;;;;1907580;67;20097;-62
2021/06/18 11:46:20;;;;;;;6.63;1.48;;;;;;;;;;1908303;67;20087;-61
2021/06/18 11:48:46;;;;;;;5.45;1.40;;;;;;;;;;1908658;67;20439;-62
2021/06/18 11:51:26;;;;;;;4.75;1.42;;;;;;;;;;1910146;67;20110;-61
2021/06/18 11:53:52;;;;;;;4.05;1.58;;;;;;;;;;1909836;67;20076;-62
2021/06/18 11:56:18;;;;;;;4.93;1.63;;;;;;;;;;1908839;67;20098;-61
2021/06/18 11:58:46;;;;;;;2.78;1.55;;;;;;;;;;1908705;67;20087;-62
2021/06/18 12:01:13;;;;;;;7.55;1.50;;;;;;;;;;1909126;67;20084;-62
2021/06/18 12:03:40;;;;;;;3.38;1.38;;;;;;;;;;1908625;67;20093;-61
2021/06/18 12:06:25;;;;;;;5.35;1.60;;;;;;;;;;1908399;67;20096;-62
2021/06/18 12:09:04;;;;;;;2.88;1.63;;;;;;;;;;1908897;67;20080;-62
2021/06/18 12:11:52;;;;;;;5.75;1.60;;;;;;;;;;1908924;67;20091;-63
2021/06/18 12:14:18;;;;;;;4.00;1.48;;;;;;;;;;1908967;67;20398;-61
2021/06/18 12:16:47;;;;;;;2.88;1.40;;;;;;;;;;1909311;67;20083;-61
2021/06/18 12:19:21;;;;;;;4.28;1.77;;;;;;;;;;1908614;67;20371;-62
2021/06/18 12:22:06;;;;;;;5.50;2.20;;;;;;;;;;1909208;67;20368;-62
2021/06/18 12:24:44;;;;;;;3.97;1.63;;;;;;;;;;1908588;67;20102;-63
2021/06/18 12:27:15;;;;;;;6.38;2.10;;;;;;;;;;1908244;67;20137;-62
2021/06/18 12:29:47;;;;;;;2.95;1.77;;;;;;;;;;1908424;67;20079;-62
2021/06/18 12:32:14;;;;;;;6.10;1.90;;;;;;;;;;1908703;75;20132;-62
2021/06/18 12:34:55;;;;;;;3.40;1.80;;;;;;;;;;1908418;67;20589;-62
2021/06/18 12:37:22;;;;;;;6.82;2.15;;;;;;;;;;1907408;67;20079;-62
2021/06/18 12:39:52;;;;;;;6.78;2.00;;;;;;;;;;1908380;75;20180;-62
2021/06/18 12:42:27;;;;;;;6.45;2.53;;;;;;;;;;1908094;75;20084;-62
2021/06/18 12:45:13;;;;;;;3.53;2.00;;;;;;;;;;1908507;67;20107;-61
2021/06/18 12:47:40;;;;;;;5.93;2.03;;;;;;;;;;1908333;67;20080;-60
2021/06/18 12:50:29;;;;;;;4.75;2.00;;;;;;;;;;1908338;67;20092;-61
2021/06/18 12:52:58;;;;;;;4.20;1.92;;;;;;;;;;1907982;67;20435;-61
2021/06/18 12:55:30;;;;;;;3.50;1.92;;;;;;;;;;1907948;67;20460;-62
2021/06/18 12:58:23;;;;;;;5.85;2.08;;;;;;;;;;1908673;67;20594;-62
2021/06/18 13:00:57;;;;;;;6.13;2.20;;;;;;;;;;1907231;75;20088;-62
2021/06/18 13:03:37;;;;;;;7.35;2.17;;;;;;;;;;1908735;75;20099;-62
2021/06/18 13:06:05;;;;;;;6.60;2.20;;;;;;;;;;1908796;67;20100;-62
2021/06/18 13:08:32;;;;;;;7.55;2.25;;;;;;;;;;1907990;67;20110;-63
2021/06/18 13:10:59;;;;;;;6.78;2.42;;;;;;;;;;1910138;75;20076;-61
2021/06/18 13:13:30;;;;;;;6.20;2.35;;;;;;;;;;1908443;67;20429;-62
2021/06/18 13:16:13;;;;;;;3.00;2.30;;;;;;;;;;1907920;75;20103;-61
2021/06/18 13:18:56;;;;;;;5.75;2.60;;;;;;;;;;1906794;67;20568;-61
2021/06/18 13:21:24;;;;;;;5.75;2.63;;;;;;;;;;1907568;67;20177;-62
2021/06/18 13:23:50;;;;;;;8.30;2.33;;;;;;;;;;1909010;75;20087;-61
2021/06/18 13:26:16;;;;;;;4.47;2.03;;;;;;;;;;1907801;67;20106;-61
2021/06/18 13:28:45;;;;;;;7.85;2.42;;;;;;;;;;1908184;67;20495;-62
2021/06/18 13:31:21;;;;;;;4.53;2.35;;;;;;;;;;1908599;59;20083;-62
2021/06/18 13:33:52;;;;;;;4.88;2.13;;;;;;;;;;1909098;75;20091;-61
2021/06/18 13:36:30;;;;;;;7.80;2.53;;;;;;;;;;1908842;67;20095;-62
2021/06/18 13:38:59;;;;;;;10.07;2.42;;;;;;;;;;1909161;67;20084;-60
2021/06/18 13:41:36;;;;;;;5.40;2.30;;;;;;;;;;1907681;67;20118;-61
2021/06/18 13:44:03;;;;;;;5.53;2.22;;;;;;;;;;1907963;67;20080;-56
2021/06/18 13:46:29;;;;;;;3.47;2.28;;;;;;;;;;1909749;75;20084;-58
2021/06/18 13:48:55;;;;;;;7.75;2.15;;;;;;;;;;1908660;67;20094;-57
2021/06/18 13:51:21;;;;;;;5.72;2.42;;;;;;;;;;1908266;67;20295;-55
2021/06/18 13:53:47;;;;;;;8.82;2.28;;;;;;;;;;1908479;67;20534;-57
2021/06/18 13:56:12;;;;;;;4.75;2.08;;;;;;;;;;1908723;67;20135;-56
2021/06/18 13:58:38;;;;;;;6.28;2.60;;;;;;;;;;1908666;67;20495;-56
2021/06/18 14:01:04;;;;;;;5.10;2.22;;;;;;;;;;1908749;67;20399;-55
2021/06/18 14:03:33;;;;;;;8.80;2.42;;;;;;;;;;1908895;67;20080;-56
2021/06/18 14:05:58;;;;;;;6.60;2.28;;;;;;;;;;1905554;67;20103;-55
2021/06/18 14:08:24;;;;;;;9.60;2.63;;;;;;;;;;1908020;67;20099;-58
2021/06/18 14:10:49;;;;;;;5.93;2.42;;;;;;;;;;1908673;67;20080;-56
2021/06/18 14:13:15;;;;;;;5.22;2.47;;;;;;;;;;1908706;67;20090;-62
2021/06/18 14:15:48;;;;;;;7.22;2.53;;;;;;;;;;1908226;67;20395;-62
2021/06/18 14:18:14;;;;;;;9.35;2.80;;;;;;;;;;1905987;67;20091;-63
2021/06/18 14:20:44;;;;;;;9.95;2.78;;;;;;;;;;1911277;67;20138;-63
2021/06/18 14:23:09;;;;;;;4.32;2.80;;;;;;;;;;1909699;67;20151;-61
2021/06/18 14:25:35;;;;;;;6.50;2.38;;;;;;;;;;1909060;67;20515;-60
2021/06/18 14:28:00;;;;;;;9.43;2.60;;;;;;;;;;1908854;67;20245;-60
2021/06/18 14:30:26;;;;;;;13.43;2.53;;;;;;;;;;1908554;67;20392;-61
2021/06/18 14:32:56;;;;;;;8.10;2.90;;;;;;;;;;1909615;67;20088;-59
2021/06/18 14:35:21;;;;;;;9.00;2.50;;;;;;;;;;1908430;67;20536;-61
2021/06/18 14:37:47;;;;;;;11.60;2.88;;;;;;;;;;1909713;67;20137;-60
2021/06/18 14:40:13;;;;;;;7.75;2.78;;;;;;;;;;1910274;67;20272;-58
2021/06/18 14:42:39;;;;;;;7.70;2.38;;;;;;;;;;1909601;67;20160;-60
2021/06/18 14:45:05;;;;;;;5.55;3.00;;;;;;;;;;1909161;75;20095;-61
2021/06/18 14:47:31;;;;;;;6.30;2.90;;;;;;;;;;1908175;67;20084;-62
2021/06/18 14:49:57;;;;;;;7.72;2.38;;;;;;;;;;1908710;75;20139;-61
2021/06/18 14:52:22;;;;;;;6.68;2.33;;;;;;;;;;1908192;67;20231;-61
2021/06/18 14:54:48;;;;;;;5.90;2.10;;;;;;;;;;1909119;67;20103;-60